Archival Weather

Tokyo Intl

Tokyo, Japan (RJTT)

Report from: Sunday, March 19, 2023 3:00 AM JST
Current time: Tuesday, July 16, 2024 5:41 PM JST

Current weather – Weather history – Daily summaries
Weather forecast

Temperature8.0°C (46.4°F)
Wind chill5.8°C (42.4°F)
Dew point5.0°C (41.0°F)
Winds 7 kts (3.6 m/s, 8.1 mph) North-Northeast (30°)
Visibility6.2 mi. (10 km)
Clouds Ceiling: Broken clouds 0 ft. (0 m)
Few clouds 1,500 ft. (457 m)
Scattered clouds 12,000 ft. (3,658 m)
Altimeter29.91 in.Hg (1013 mB)
Relative humidity81 %
Density altitude-705 ft. (-215 m)
Remarks No significant changes expected in the next two hours
Flight conditions Low Instrument Meteorological Conditions
Raw dataRJTT 181800Z 03007KT 9999 FEW015 SCT120 BKN/// 08/05 Q1013 NOSIG RMK 1CU015 3AC120 A2994
An error has occurred. This application may no longer respond until reloaded. Reload 🗙